Time;durP1;ratioP1;P1;durP2;ratioP2;P2;SDS_P1;SDS_P2;PMS_P1;PMS_P2;Temp;Humidity;BMP_temperature;BMP_pressure;BME280_temperature;BME280_humidity;BME280_pressure;Samples;Min_cycle;Max_cycle;Signal;HPM_P1;HPM_P2
2022/08/11 00:01:14;;;;;;;9.18;6.65;;;;;;;23.83;57.23;99995.41;5024505;28;20417;-29
2022/08/11 00:03:48;;;;;;;9.13;6.25;;;;;;;23.85;56.38;99998.63;5024259;28;20030;-36
2022/08/11 00:06:26;;;;;;;9.52;7.00;;;;;;;23.84;56.33;99991.53;5009457;28;20026;-27
2022/08/11 00:08:53;;;;;;;9.32;7.13;;;;;;;23.85;57.08;99998.63;5024068;28;20057;-27
2022/08/11 00:11:20;;;;;;;10.40;7.38;;;;;;;23.69;56.71;99994.63;5024133;28;20040;-29
2022/08/11 00:13:48;;;;;;;12.57;7.90;;;;;;;23.72;57.24;99999.44;5007490;28;20513;-32
2022/08/11 00:16:17;;;;;;;9.75;7.05;;;;;;;23.85;56.69;99995.91;5007657;28;20072;-28
2022/08/11 00:18:46;;;;;;;11.68;7.63;;;;;;;24.12;55.69;99997.66;5023884;28;20026;-30
2022/08/11 00:21:13;;;;;;;11.57;8.02;;;;;;;23.72;55.97;99988.53;5023909;28;20073;-32
2022/08/11 00:23:56;;;;;;;12.70;9.05;;;;;;;23.67;56.01;99981.31;5023680;28;20040;-31
2022/08/11 00:26:23;;;;;;;13.18;8.82;;;;;;;23.53;56.14;99981.34;5008651;28;20125;-30
2022/08/11 00:28:50;;;;;;;15.52;8.95;;;;;;;23.84;55.36;99989.66;5023718;28;20464;-28
2022/08/11 00:31:35;;;;;;;11.53;8.50;;;;;;;23.71;57.12;99990.47;5023798;28;20034;-29
2022/08/11 00:34:03;;;;;;;13.32;9.57;;;;;;;23.54;56.64;99982.97;5006955;28;20584;-31
2022/08/11 00:36:42;;;;;;;;;;;;;;;23.49;56.98;99985.78;5007689;28;20117;-31
2022/08/11 00:39:09;;;;;;;9.57;7.18;;;;;;;23.33;56.79;99984.53;5008715;28;19968;-28
2022/08/11 00:42:12;;;;;;;10.35;6.78;;;;;;;23.07;57.17;99968.78;5023699;28;20100;-27
2022/08/11 00:45:12;;;;;;;8.30;6.10;;;;;;;23.25;57.03;99981.44;5008775;28;20036;-28
2022/08/11 00:48:01;;;;;;;11.10;6.85;;;;;;;23.06;57.38;99976.13;5008073;28;20544;-28
2022/08/11 00:50:51;;;;;;;9.57;6.80;;;;;;;23.38;56.85;99996.13;5006941;28;20121;-29
2022/08/11 00:53:45;;;;;;;9.70;7.70;;;;;;;23.58;56.99;99994.84;5007255;28;20030;-27
2022/08/11 00:56:10;;;;;;;10.63;7.65;;;;;;;23.32;57.79;99997.34;5008501;28;20046;-28
2022/08/11 00:59:13;;;;;;;10.43;7.80;;;;;;;23.45;57.97;100001.94;5008446;28;20040;-27
2022/08/11 01:01:58;;;;;;;10.80;6.93;;;;;;;23.72;57.80;99994.00;5008574;28;20037;-30
2022/08/11 01:04:54;;;;;;;9.80;6.90;;;;;;;23.25;57.82;99977.91;5023441;28;20025;-28
2022/08/11 01:07:45;;;;;;;10.55;6.57;;;;;;;23.35;58.25;99990.47;5008033;28;20036;-27
2022/08/11 01:10:30;;;;;;;9.60;6.88;;;;;;;23.39;57.97;99992.28;5023384;28;20525;-31
2022/08/11 01:13:32;;;;;;;9.15;7.35;;;;;;;23.50;57.75;99994.75;5008259;28;20021;-28
2022/08/11 01:16:31;;;;;;;9.20;6.82;;;;;;;23.10;59.47;99976.31;5023132;28;20030;-27
2022/08/11 01:19:21;;;;;;;8.77;6.78;;;;;;;23.19;58.92;99982.66;5007913;28;20937;-30
2022/08/11 01:22:14;;;;;;;11.25;6.82;;;;;;;23.11;58.99;99979.84;5007928;28;20041;-28
2022/08/11 01:25:13;;;;;;;8.35;7.07;;;;;;;23.34;58.16;99986.16;5008182;28;20108;-28
2022/08/11 01:27:50;;;;;;;10.25;6.80;;;;;;;23.03;58.90;99981.38;5007756;28;20034;-27
2022/08/11 01:31:02;;;;;;;10.52;7.18;;;;;;;23.22;58.19;99976.59;5007704;28;20034;-32
2022/08/11 01:33:49;;;;;;;10.43;6.97;;;;;;;23.15;58.08;99975.41;5005704;28;20045;-27
2022/08/11 01:36:26;;;;;;;8.40;6.20;;;;;;;23.06;58.04;99969.88;5007725;28;20025;-28
2022/08/11 01:38:58;;;;;;;8.27;6.32;;;;;;;23.18;57.77;99972.88;5008047;28;20076;-31
2022/08/11 01:45:14;;;;;;;11.82;7.07;;;;;;;23.12;58.13;99982.25;5012580;28;20051;-29
2022/08/11 01:47:51;;;;;;;12.23;7.70;;;;;;;23.15;58.15;99984.38;5007466;28;20038;-32
2022/08/11 01:50:32;;;;;;;13.82;7.47;;;;;;;23.19;58.54;99982.66;5022750;28;20072;-29
2022/08/11 01:53:03;;;;;;;10.20;7.20;;;;;;;23.54;57.53;99972.09;5007326;28;20034;-31
2022/08/11 01:55:49;;;;;;;10.57;7.22;;;;;;;23.38;58.26;99979.00;5022658;28;20383;-28
2022/08/11 01:58:36;;;;;;;12.27;7.82;;;;;;;23.25;58.85;99981.44;5007492;28;20040;-29
2022/08/11 02:01:15;;;;;;;10.52;7.63;;;;;;;23.05;59.61;99957.41;5007336;28;20040;-31
2022/08/11 02:03:59;;;;;;;9.73;7.53;;;;;;;23.19;59.32;99971.78;5022377;28;20034;-30
2022/08/11 02:06:55;;;;;;;11.30;8.20;;;;;;;23.34;58.71;99980.72;5022333;28;20481;-28
2022/08/11 02:09:33;;;;;;;10.85;8.18;;;;;;;23.45;58.54;99974.72;5007070;28;20521;-28
2022/08/11 02:12:09;;;;;;;9.18;7.85;;;;;;;23.20;58.89;99954.34;5021925;28;20034;-30
2022/08/11 02:14:48;;;;;;;10.35;7.88;;;;;;;23.10;60.11;99962.72;5005825;28;20061;-28
2022/08/11 02:17:21;;;;;;;10.15;7.80;;;;;;;23.21;59.38;99952.41;5006721;28;20025;-32
2022/08/11 02:23:38;;;;;;;11.43;8.88;;;;;;;23.11;59.06;99971.66;5007364;28;20835;-28
2022/08/11 02:26:09;;;;;;;11.20;8.68;;;;;;;22.80;60.39;99973.09;5021673;28;20038;-29
2022/08/11 02:28:54;;;;;;;16.40;8.60;;;;;;;22.81;60.75;99976.63;5021884;28;20032;-30
2022/08/11 02:34:27;;;;;;;11.45;7.82;;;;;;;22.04;63.40;99981.50;5007040;28;20095;-28
2022/08/11 02:37:17;;;;;;;15.50;9.73;;;;;;;22.24;62.17;99963.28;5021841;28;20073;-28
2022/08/11 02:39:52;;;;;;;14.85;8.75;;;;;;;22.36;61.63;99988.06;5006760;28;20045;-32
2022/08/11 02:42:45;;;;;;;12.98;8.75;;;;;;;22.30;62.39;99978.41;5006671;28;20030;-31
2022/08/11 02:45:11;;;;;;;11.40;9.18;;;;;;;21.85;63.50;99978.03;5021160;28;20567;-27
2022/08/11 02:51:36;;;;;;;11.50;8.20;;;;;;;21.60;64.79;99981.97;5006863;28;20056;-29
2022/08/11 02:54:16;;;;;;;10.32;7.70;;;;;;;21.82;64.24;99956.91;5006503;28;20441;-29
2022/08/11 02:57:20;;;;;;;12.23;8.57;;;;;;;21.96;64.31;99984.91;5005106;28;20405;-27
2022/08/11 03:00:07;;;;;;;10.65;8.07;;;;;;;22.38;62.84;99979.63;5015109;28;20115;-28
2022/08/11 03:02:33;;;;;;;10.30;7.60;;;;;;;22.40;62.73;99983.66;5006805;28;20014;-28
2022/08/11 03:05:12;;;;;;;11.02;7.63;;;;;;;22.17;63.48;99995.44;5021544;28;20034;-27
2022/08/11 03:07:56;;;;;;;11.05;7.97;;;;;;;22.44;62.89;99984.66;5021672;28;20075;-27
2022/08/11 03:10:28;;;;;;;13.20;8.00;;;;;;;22.42;62.56;99986.06;5006385;28;20401;-28
2022/08/11 03:16:49;;;;;;;11.73;9.55;;;;;;;22.51;63.27;99992.41;5005381;28;20064;-29
2022/08/11 03:19:17;;;;;;;13.70;9.30;;;;;;;22.50;63.46;99992.72;5015537;28;20042;-31
2022/08/11 03:22:31;;;;;;;18.67;9.88;;;;;;;22.48;63.89;99992.22;5006298;28;20045;-30
2022/08/11 03:25:11;;;;;;;15.10;10.23;;;;;;;22.32;64.29;99981.63;5014059;28;20134;-29
2022/08/11 03:28:18;;;;;;;14.07;10.25;;;;;;;22.30;65.03;100002.03;5005446;28;20481;-29
2022/08/11 03:31:41;;;;;;;14.48;10.10;;;;;;;22.04;66.02;99997.00;5046831;28;20044;-28
2022/08/11 03:34:24;;;;;;;12.55;10.50;;;;;;;21.94;66.53;99991.75;5066624;28;20029;-27
2022/08/11 03:37:11;;;;;;;14.43;10.40;;;;;;;21.87;66.41;99983.97;5066388;28;20501;-30
2022/08/11 03:39:53;;;;;;;14.80;11.23;;;;;;;22.19;65.30;100009.50;5025132;28;20100;-30
2022/08/11 03:42:32;;;;;;;14.88;11.15;;;;;;;22.10;65.07;99992.31;5009507;28;20080;-32
2022/08/11 03:45:13;;;;;;;15.52;11.10;;;;;;;22.11;65.60;100012.91;5008920;28;20058;-28
2022/08/11 03:47:57;;;;;;;14.68;10.98;;;;;;;21.85;66.17;99973.41;5007916;28;20026;-31
2022/08/11 03:50:31;;;;;;;14.85;11.07;;;;;;;22.16;66.14;100008.22;5008391;28;20129;-28
2022/08/11 03:53:12;;;;;;;13.65;10.15;;;;;;;21.87;67.34;100000.28;5009884;28;20117;-28
2022/08/11 03:55:44;;;;;;;13.75;10.52;;;;;;;21.91;67.55;100009.44;5008230;28;20057;-30
2022/08/11 03:58:21;;;;;;;16.10;12.45;;;;;;;21.71;68.87;100015.19;5009542;28;20130;-27
2022/08/11 04:01:06;;;;;;;15.90;11.75;;;;;;;21.77;69.05;100014.81;5008207;28;20038;-29
2022/08/11 04:03:45;;;;;;;15.20;12.52;;;;;;;21.87;68.03;99992.13;5008099;28;20069;-32
2022/08/11 04:06:20;;;;;;;19.60;12.93;;;;;;;22.00;68.17;100018.50;5007891;28;20548;-28
2022/08/11 04:09:24;;;;;;;20.10;12.27;;;;;;;22.06;67.95;100017.31;5008189;28;20508;-28
2022/08/11 04:12:10;;;;;;;15.30;11.80;;;;;;;22.07;68.33;100015.44;5045903;28;20032;-29
2022/08/11 04:18:02;;;;;;;21.27;13.75;;;;;;;21.94;68.78;100019.69;5012455;28;20504;-29
2022/08/11 04:21:02;;;;;;;19.45;13.98;;;;;;;21.93;69.55;100012.66;5007776;28;20037;-27
2022/08/11 04:23:46;;;;;;;22.88;14.13;;;;;;;22.10;68.28;100027.59;5009304;28;20030;-28
2022/08/11 04:26:55;;;;;;;14.15;12.30;;;;;;;22.07;68.56;100029.81;5009029;28;20030;-28
2022/08/11 04:29:57;;;;;;;14.40;12.35;;;;;;;22.22;68.41;100030.66;5045934;28;20040;-29
2022/08/11 04:32:34;;;;;;;15.55;12.30;;;;;;;22.15;68.83;100043.81;5009465;28;20532;-29
2022/08/11 04:35:06;;;;;;;13.23;11.02;;;;;;;22.44;67.88;100049.88;5009124;28;20453;-28
2022/08/11 04:37:40;;;;;;;14.35;11.85;;;;;;;22.44;68.12;100049.06;5008763;28;20034;-30
2022/08/11 04:40:11;;;;;;;14.40;12.90;;;;;;;22.42;68.35;100035.78;5009063;28;20065;-27
2022/08/11 04:43:20;;;;;;;14.25;12.65;;;;;;;22.23;69.22;100037.69;5008807;28;20034;-30
2022/08/11 04:46:07;;;;;;;14.82;12.88;;;;;;;22.04;70.38;100046.69;5008565;28;20068;-28
2022/08/11 05:01:58;;;;;;;13.45;11.15;;;;;;;22.94;67.96;100037.53;5008657;28;20508;-37
2022/08/11 05:07:58;;;;;;;15.63;11.68;;;;;;;22.93;66.95;100033.22;5008571;28;20476;-31
2022/08/11 05:10:41;;;;;;;13.88;12.38;;;;;;;23.16;65.95;100026.78;5008546;28;20084;-28
2022/08/11 05:35:48;;;;;;;12.90;11.38;;;;;;;24.71;59.12;100024.78;5008163;28;20096;-29
2022/08/11 05:57:56;;;;;;;12.63;10.70;;;;;;;25.06;57.17;100035.81;5007623;28;20095;-28
2022/08/11 06:00:25;;;;;;;13.38;9.98;;;;;;;25.47;55.94;100040.09;5005581;28;20738;-29
2022/08/11 06:03:00;;;;;;;12.00;9.68;;;;;;;25.13;56.77;100036.16;5007196;28;20034;-29
2022/08/11 06:05:40;;;;;;;11.95;8.77;;;;;;;25.29;56.72;100036.53;5007402;28;20457;-29
2022/08/11 06:08:07;;;;;;;11.93;9.05;;;;;;;25.28;56.38;100023.22;5007632;28;20064;-32
2022/08/11 06:10:39;;;;;;;10.70;9.07;;;;;;;25.50;55.92;100038.66;5006099;28;20148;-29
2022/08/11 06:13:07;;;;;;;11.02;8.38;;;;;;;25.50;56.45;100031.28;5022370;28;20103;-30
2022/08/11 06:15:43;;;;;;;11.75;9.40;;;;;;;25.57;56.25;100039.78;5005709;28;20505;-30
2022/08/11 06:18:11;;;;;;;14.80;8.93;;;;;;;25.37;56.54;100038.47;5006084;28;20048;-29
2022/08/11 06:20:54;;;;;;;12.07;9.80;;;;;;;25.37;55.94;100040.41;5022246;28;20026;-29
2022/08/11 06:23:22;;;;;;;9.90;8.80;;;;;;;25.36;55.42;100044.28;5005763;28;20037;-31
2022/08/11 06:25:50;;;;;;;11.70;7.93;;;;;;;25.58;54.80;100035.94;5021823;28;20034;-27
2022/08/11 06:28:19;;;;;;;10.00;7.95;;;;;;;25.59;53.72;100021.16;5022133;28;20065;-28
2022/08/11 06:30:47;;;;;;;8.18;6.90;;;;;;;25.91;53.04;100035.50;5021950;28;20042;-28
2022/08/11 06:33:50;;;;;;;9.75;7.55;;;;;;;26.04;53.53;100020.84;5007166;28;20094;-29
2022/08/11 06:36:37;;;;;;;10.02;7.05;;;;;;;26.11;51.27;100028.53;5021796;28;20037;-28
2022/08/11 06:39:20;;;;;;;8.55;6.05;;;;;;;26.22;49.87;100038.00;5022083;28;20018;-30
2022/08/11 06:41:54;;;;;;;7.35;6.10;;;;;;;26.35;50.94;100021.75;5021806;28;20057;-28
2022/08/11 06:44:31;;;;;;;9.50;5.78;;;;;;;26.37;49.02;100024.94;5021789;28;20045;-28
2022/08/11 06:47:06;;;;;;;9.63;5.17;;;;;;;26.76;47.56;100029.34;5005127;28;20057;-28
2022/08/11 06:52:30;;;;;;;5.80;4.72;;;;;;;26.57;47.96;100032.47;5006987;28;20041;-28
2022/08/11 06:55:03;;;;;;;7.43;5.07;;;;;;;26.48;48.15;100028.13;5005504;28;20040;-33
2022/08/11 07:00:28;;;;;;;6.68;5.57;;;;;;;26.86;47.12;100034.44;5006907;28;20053;-30
2022/08/11 07:03:07;;;;;;;7.95;5.47;;;;;;;26.48;48.22;100039.88;5009602;28;20132;-31
2022/08/11 07:05:36;;;;;;;7.13;5.40;;;;;;;26.66;47.23;100040.63;5025431;28;20516;-31
2022/08/11 07:29:13;;;;;;;9.18;4.55;;;;;;;27.16;45.86;100039.13;5010494;28;20041;-30
2022/08/11 07:31:48;;;;;;;6.85;4.80;;;;;;;27.66;45.50;100032.84;5025463;28;20108;-30
2022/08/11 07:34:20;;;;;;;8.32;5.10;;;;;;;27.78;44.14;100029.38;5010206;28;20156;-31
2022/08/11 07:36:57;;;;;;;8.77;4.78;;;;;;;27.94;43.54;100033.13;5009056;28;20409;-28
2022/08/11 07:39:33;;;;;;;10.77;4.70;;;;;;;28.14;43.81;100027.94;5025548;28;20026;-27
2022/08/11 07:42:03;;;;;;;7.97;4.88;;;;;;;28.37;41.62;100044.78;5025019;28;20040;-28
2022/08/11 07:44:29;;;;;;;9.80;4.75;;;;;;;28.40;42.53;100033.13;5025112;28;20029;-30
2022/08/11 07:52:33;;;;;;;7.72;4.55;;;;;;;28.65;41.24;100040.31;5010111;28;20096;-31
2022/08/11 07:55:03;;;;;;;6.93;4.78;;;;;;;28.70;40.95;100031.03;5009982;28;20121;-29
2022/08/11 08:19:36;;;;;;;6.63;4.60;;;;;;;29.20;39.82;100004.41;5009482;28;20033;-30
2022/08/11 08:22:02;;;;;;;5.65;4.18;;;;;;;29.10;39.26;99989.19;5024230;28;20061;-34
2022/08/11 08:24:29;;;;;;;6.57;4.37;;;;;;;29.22;39.92;100013.91;5024558;28;20064;-31
2022/08/11 08:26:58;;;;;;;6.35;4.53;;;;;;;29.42;39.93;100014.06;5007604;28;20028;-29
2022/08/11 08:32:17;;;;;;;7.00;4.50;;;;;;;29.48;40.47;99996.19;5009461;28;20041;-30
2022/08/11 08:34:43;;;;;;;8.65;5.22;;;;;;;29.64;38.79;100007.25;5024124;28;20025;-30
2022/08/11 08:37:10;;;;;;;7.35;4.97;;;;;;;29.32;39.43;99998.06;5008973;28;20037;-31
2022/08/11 08:39:36;;;;;;;6.55;4.63;;;;;;;29.05;40.65;99987.47;5024196;28;20040;-28
2022/08/11 08:42:10;;;;;;;9.07;4.38;;;;;;;29.17;39.89;100003.13;5008643;28;20034;-28
2022/08/11 08:44:40;;;;;;;6.65;5.10;;;;;;;29.09;41.20;99990.31;5008821;28;20141;-28
2022/08/11 08:47:08;;;;;;;6.68;4.85;;;;;;;29.42;40.46;99978.38;5023729;28;20042;-28
2022/08/11 08:49:43;;;;;;;8.27;4.63;;;;;;;29.42;40.62;99994.84;5023536;28;20030;-31
2022/08/11 08:52:13;;;;;;;7.35;4.43;;;;;;;29.45;39.14;99994.97;5023796;28;20056;-29
2022/08/11 08:54:42;;;;;;;6.00;4.38;;;;;;;29.48;39.48;99987.97;5007499;28;20052;-29
2022/08/11 08:57:10;;;;;;;7.25;4.97;;;;;;;29.63;39.23;99979.00;5008403;28;20034;-33
2022/08/11 08:59:43;;;;;;;7.18;4.78;;;;;;;29.68;38.83;99991.66;5008351;28;20025;-30
2022/08/11 09:02:11;;;;;;;6.95;4.80;;;;;;;29.54;38.53;99981.06;5006663;28;20030;-32
2022/08/11 09:04:39;;;;;;;6.60;4.68;;;;;;;29.28;38.26;99984.25;5008593;28;20489;-31
2022/08/11 09:07:14;;;;;;;7.68;4.97;;;;;;;29.88;39.33;99972.63;5023668;28;20037;-31
2022/08/11 09:09:58;;;;;;;7.28;5.05;;;;;;;30.07;38.75;99975.47;5007082;28;20030;-31
2022/08/11 09:12:30;;;;;;;6.63;4.88;;;;;;;30.21;37.03;99977.81;5008499;28;20037;-31
2022/08/11 09:14:59;;;;;;;7.13;5.05;;;;;;;30.41;38.14;99954.75;5023340;28;20057;-29
2022/08/11 09:17:26;;;;;;;8.35;4.82;;;;;;;30.76;38.16;99970.53;5023469;28;20038;-30
2022/08/11 09:19:59;;;;;;;8.73;4.65;;;;;;;30.78;37.01;99964.66;5008034;28;20598;-29
2022/08/11 09:28:03;;;;;;;7.38;4.80;;;;;;;31.15;36.51;99956.88;5008097;28;20048;-28
2022/08/11 09:30:30;;;;;;;7.20;4.30;;;;;;;31.31;35.65;99954.06;5023030;28;20087;-29
2022/08/11 09:32:59;;;;;;;6.70;4.35;;;;;;;31.47;35.14;99944.94;5022954;28;20037;-29
2022/08/11 09:35:29;;;;;;;7.50;4.60;;;;;;;31.72;34.61;99956.47;5007688;28;20053;-28
2022/08/11 09:40:44;;;;;;;5.50;4.60;;;;;;;31.30;34.31;99954.41;5007972;28;20107;-30
2022/08/11 09:45:57;;;;;;;7.90;4.10;;;;;;;31.57;35.80;99922.34;5006122;28;20516;-29
2022/08/11 09:48:24;;;;;;;;;;;;;;;31.76;35.61;99938.03;5023505;28;20041;-33
2022/08/11 09:50:52;;;;;;;6.03;4.83;;;;;;;31.99;34.36;99932.53;5007898;28;19967;-31
2022/08/11 09:53:20;;;;;;;5.90;4.30;;;;;;;31.92;33.83;99926.91;5006392;28;20276;-38
2022/08/11 09:55:47;;;;;;;10.68;4.47;;;;;;;32.11;33.99;99920.56;5007495;28;20555;-28
2022/08/11 09:58:16;;;;;;;7.07;4.28;;;;;;;32.33;33.14;99922.50;5006077;28;20029;-29
2022/08/11 10:00:43;;;;;;;6.63;4.60;;;;;;;31.98;33.31;99936.47;5022222;28;20128;-32
2022/08/11 10:03:17;;;;;;;7.28;4.22;;;;;;;32.38;33.94;99915.88;5022566;28;20026;-29
2022/08/11 10:08:32;;;;;;;;;;;;;;;32.63;32.82;99932.84;5008220;28;20204;-30
2022/08/11 10:10:58;;;;;;;6.38;4.88;;;;;;;33.15;32.14;99933.19;5006899;28;20407;-33
2022/08/11 10:13:33;;;;;;;7.38;5.90;;;;;;;33.04;31.33;99924.75;5007560;28;20529;-32
2022/08/11 10:16:02;;;;;;;8.48;4.40;;;;;;;32.72;31.83;99922.34;5007037;28;20038;-29
2022/08/11 10:18:41;;;;;;;6.35;4.43;;;;;;;33.06;31.24;99922.41;5007080;28;20034;-27
2022/08/11 10:21:11;;;;;;;5.65;3.97;;;;;;;32.50;30.44;99926.69;5006912;28;20034;-30
2022/08/11 10:34:46;;;;;;;5.68;4.20;;;;;;;32.19;31.54;99902.97;5007141;28;20044;-38
2022/08/11 10:37:13;;;;;;;5.32;3.83;;;;;;;32.76;30.35;99914.91;5021735;28;20022;-29
2022/08/11 10:39:40;;;;;;;6.23;4.00;;;;;;;33.02;29.93;99896.72;5005337;28;20030;-29
2022/08/11 10:44:54;;;;;;;6.43;3.90;;;;;;;33.74;31.61;99894.78;5006660;28;20052;-29
2022/08/11 10:47:33;;;;;;;6.13;4.20;;;;;;;33.84;31.07;99899.63;5021810;28;20053;-33
2022/08/11 11:01:33;;;;;;;5.53;4.07;;;;;;;33.90;28.28;99897.28;5043303;28;20500;-32
2022/08/11 11:04:10;;;;;;;6.03;4.03;;;;;;;34.09;29.36;99882.47;5026633;28;20179;-28
2022/08/11 11:07:00;;;;;;;6.05;3.65;;;;;;;34.09;28.47;99896.28;5013150;28;20133;-31
2022/08/11 11:09:31;;;;;;;5.65;4.28;;;;;;;34.38;29.01;99889.81;5006600;28;20029;-30
2022/08/11 11:17:56;;;;;;;5.22;3.78;;;;;;;34.65;28.17;99878.53;5006583;28;20036;-29
2022/08/11 11:20:29;;;;;;;7.82;4.03;;;;;;;33.94;28.64;99871.28;5021739;28;20115;-29
2022/08/11 11:23:00;;;;;;;5.88;4.10;;;;;;;33.02;30.01;99855.28;5006671;28;20109;-29
2022/08/11 11:25:38;;;;;;;8.07;4.13;;;;;;;32.97;30.78;99844.53;5005173;28;20121;-30
2022/08/11 11:28:45;;;;;;;5.88;3.47;;;;;;;33.49;30.60;99864.91;5021086;28;20092;-30
2022/08/11 11:31:29;;;;;;;7.07;3.88;;;;;;;33.95;30.21;99864.53;5004889;28;20496;-29
2022/08/11 11:34:18;;;;;;;6.30;3.80;;;;;;;34.28;29.46;99854.53;5006211;28;20032;-28
2022/08/11 11:36:48;;;;;;;7.63;4.20;;;;;;;34.55;28.63;99846.00;5021453;28;20030;-29
2022/08/11 11:39:22;;;;;;;6.47;4.25;;;;;;;34.70;29.54;99856.03;5006439;28;20040;-29
2022/08/11 11:41:50;;;;;;;4.72;3.75;;;;;;;34.42;29.04;99857.41;5021044;28;20030;-31
2022/08/11 11:44:16;;;;;;;6.88;4.13;;;;;;;34.75;29.35;99844.56;5021120;28;20495;-31
2022/08/11 11:46:44;;;;;;;4.93;3.67;;;;;;;35.10;29.27;99826.47;5020942;28;20053;-28
2022/08/11 11:49:10;;;;;;;4.22;3.20;;;;;;;35.56;26.29;99836.91;5022865;28;20572;-31
2022/08/11 11:51:36;;;;;;;5.95;3.45;;;;;;;35.91;27.17;99832.59;5008589;28;20417;-30
2022/08/11 11:54:03;;;;;;;7.78;3.72;;;;;;;35.94;26.79;99842.91;5008281;28;20026;-31
2022/08/11 11:56:30;;;;;;;5.70;3.58;;;;;;;35.71;26.35;99823.06;5024809;28;20117;-28
2022/08/11 12:01:43;;;;;;;5.55;3.33;;;;;;;36.14;26.21;99825.81;5009738;28;20057;-30
2022/08/11 12:04:10;;;;;;;;;;;;;;;36.48;26.48;99831.72;5025398;28;20026;-32
2022/08/11 12:06:35;;;;;;;;;;;;;;;35.75;26.29;99827.44;5025206;28;20435;-30
2022/08/11 12:09:01;;;;;;;11.70;8.67;;;;;;;36.01;26.40;99814.34;5008305;28;19917;-29
2022/08/11 12:14:16;;;;;;;5.03;3.47;;;;;;;35.64;25.81;99817.50;5009613;28;20064;-35
2022/08/11 12:16:44;;;;;;;5.07;3.38;;;;;;;36.04;25.12;99802.44;5024405;28;20038;-34
2022/08/11 12:19:13;;;;;;;4.30;3.50;;;;;;;35.14;26.43;99804.31;5007868;28;20018;-31
2022/08/11 12:27:19;;;;;;;4.90;3.65;;;;;;;35.73;27.62;99798.50;5024279;28;20424;-30
2022/08/11 12:27:21;;;;;;;6.70;3.35;;;;;;;34.51;26.75;99815.56;5009285;28;20036;-28
2022/08/11 12:29:49;;;;;;;5.97;3.30;;;;;;;34.35;27.50;99798.47;5024162;28;20033;-29
2022/08/11 12:32:15;;;;;;;4.45;3.05;;;;;;;34.32;26.62;99807.53;5024019;28;20037;-29
2022/08/11 12:34:41;;;;;;;6.10;3.00;;;;;;;34.89;26.10;99807.03;5007568;28;20074;-29
2022/08/11 12:37:11;;;;;;;4.97;2.80;;;;;;;34.80;26.84;99791.56;5024104;28;20076;-29
2022/08/11 12:45:28;;;;;;;2.85;2.13;;;;;;;33.16;27.61;99804.91;5008679;28;20127;-29
2022/08/11 12:54:30;;;;;;;4.40;2.10;;;;;;;33.19;26.65;99809.69;5008628;28;20071;-31
2022/08/11 13:05:20;;;;;;;3.30;2.17;;;;;;;32.97;26.97;99784.56;5008570;28;20084;-32
2022/08/11 13:07:47;;;;;;;5.70;2.00;;;;;;;32.61;27.96;99786.09;5023496;28;20026;-30
2022/08/11 13:12:46;;;;;;;4.32;1.88;;;;;;;32.58;27.95;99806.19;5024186;28;20033;-33
2022/08/11 13:13:04;;;;;;;2.67;1.90;;;;;;;32.58;28.19;99803.44;5009002;28;20025;-28
2022/08/11 13:15:30;;;;;;;7.97;2.05;;;;;;;32.41;31.53;99783.47;5009199;28;20061;-31
2022/08/11 13:17:57;;;;;;;9.75;2.33;;;;;;;32.02;32.83;99794.72;5007461;28;20478;-32
2022/08/11 13:20:24;;;;;;;6.90;2.10;;;;;;;31.71;31.89;99803.25;5007550;28;20034;-29
2022/08/11 13:22:53;;;;;;;4.75;2.00;;;;;;;31.58;31.46;99795.16;5007294;28;20450;-28
2022/08/11 13:25:23;;;;;;;3.67;2.08;;;;;;;31.61;30.83;99791.69;5009385;28;20040;-32
2022/08/11 13:27:51;;;;;;;2.47;1.95;;;;;;;31.60;30.08;99790.06;5023699;28;20042;-30
2022/08/11 13:33:03;;;;;;;3.33;1.88;;;;;;;31.83;29.89;99786.50;5009086;28;20041;-28
2022/08/11 13:35:32;;;;;;;;;;;;;;;31.93;29.04;99799.66;5024540;28;20029;-29
2022/08/11 13:38:00;;;;;;;4.97;1.98;;;;;;;31.72;29.77;99774.53;5008496;28;20012;-29
2022/08/11 13:40:27;;;;;;;3.80;2.10;;;;;;;31.92;29.63;99789.81;5007348;28;20029;-28
2022/08/11 13:42:54;;;;;;;2.78;2.15;;;;;;;32.06;29.92;99793.97;5007248;28;20022;-28
2022/08/11 13:45:23;;;;;;;3.40;2.50;;;;;;;32.04;29.62;99791.59;5006896;28;20133;-35
2022/08/11 13:47:51;;;;;;;2.33;1.90;;;;;;;32.38;29.79;99778.69;5008052;28;20076;-31
2022/08/11 13:50:18;;;;;;;2.22;1.90;;;;;;;32.87;29.44;99792.72;5023540;28;20049;-29
2022/08/11 13:52:45;;;;;;;2.50;1.70;;;;;;;33.27;28.15;99794.78;5008600;28;20026;-31
2022/08/11 13:55:20;;;;;;;;;;;;;;;33.12;29.03;99782.81;5023367;28;20099;-30
2022/08/11 13:57:49;;;;;;;3.15;1.90;;;;;;;33.02;27.47;99777.94;5022115;28;19913;-29
2022/08/11 14:00:15;;;;;;;2.88;1.83;;;;;;;33.49;27.88;99776.44;5007097;28;20034;-30
2022/08/11 14:02:43;;;;;;;2.72;1.92;;;;;;;34.96;26.32;99779.34;5022421;28;20045;-29
2022/08/11 14:05:24;;;;;;;9.63;7.65;;;;;;;35.34;24.75;99763.22;5005427;28;20101;-28
2022/08/11 14:07:52;;;;;;;9.50;6.05;;;;;;;35.19;25.13;99765.97;5005491;28;20037;-32
2022/08/11 14:10:22;;;;;;;8.20;4.18;;;;;;;34.62;26.47;99774.06;4997554;28;20049;-28
2022/08/11 14:16:06;;;;;;;3.67;2.10;;;;;;;34.10;26.29;99773.34;4987595;28;20645;-32
2022/08/11 14:18:32;;;;;;;5.63;2.38;;;;;;;33.25;27.53;99785.28;4997541;28;20034;-32
2022/08/11 14:23:53;;;;;;;12.88;9.73;;;;;;;32.59;28.08;99782.91;5006996;28;20044;-34
2022/08/11 14:26:27;;;;;;;6.57;2.70;;;;;;;33.58;27.09;99776.13;5006944;28;20030;-37
2022/08/11 14:29:02;;;;;;;2.78;1.90;;;;;;;34.76;25.55;99779.69;5022031;28;20038;-30
2022/08/11 14:31:34;;;;;;;2.22;1.80;;;;;;;35.67;24.41;99786.22;5021958;28;20034;-33
2022/08/11 14:34:02;;;;;;;5.75;3.78;;;;;;;36.19;24.15;99778.28;5005507;28;20509;-31
2022/08/11 14:36:37;;;;;;;2.78;1.83;;;;;;;36.01;24.65;99787.38;5021853;28;20133;-29
2022/08/11 14:39:15;;;;;;;6.00;2.03;;;;;;;35.48;24.36;99777.09;5000801;28;20045;-29
2022/08/11 14:47:46;;;;;;;45.92;4.10;;;;;;;35.39;24.50;99784.97;5006044;28;20049;-36
2022/08/11 14:50:16;;;;;;;10.77;2.30;;;;;;;35.15;25.05;99781.78;4990659;28;20111;-31
2022/08/11 14:52:48;;;;;;;20.67;2.80;;;;;;;34.61;25.14;99769.69;4996297;28;20045;-29
2022/08/11 14:57:59;;;;;;;10.98;2.50;;;;;;;34.09;25.61;99794.69;5006594;28;20084;-29
2022/08/11 15:00:25;;;;;;;35.83;4.65;;;;;;;33.32;26.42;99774.28;5021392;28;20124;-28
2022/08/11 15:03:09;;;;;;;13.23;2.63;;;;;;;32.88;27.81;99777.78;5005653;28;20117;-28
2022/08/11 15:05:35;;;;;;;41.80;6.55;;;;;;;32.50;27.82;99785.16;4985625;28;20034;-28
2022/08/11 15:08:03;;;;;;;39.22;4.85;;;;;;;32.46;27.93;99773.25;4985328;28;20038;-29
2022/08/11 15:10:29;;;;;;;17.02;2.80;;;;;;;32.39;28.00;99774.75;4986816;28;20118;-30
2022/08/11 15:12:55;;;;;;;3.40;2.10;;;;;;;32.31;28.30;99783.31;4985389;28;20122;-30
2022/08/11 15:18:09;;;;;;;5.00;2.08;;;;;;;31.75;29.03;99765.50;5006187;28;20496;-30
2022/08/11 15:26:09;;;;;;;5.25;2.50;;;;;;;31.52;28.96;99777.34;5009444;28;20104;-30
2022/08/11 15:39:34;;;;;;;2.65;1.83;;;;;;;31.22;29.08;99775.22;5007305;28;20049;-29
2022/08/11 15:47:47;;;;;;;8.35;1.92;;;;;;;30.76;30.13;99758.56;5009118;28;20127;-31
2022/08/11 15:50:17;;;;;;;4.93;1.80;;;;;;;31.12;29.66;99777.75;5008177;28;20034;-32
2022/08/11 15:52:51;;;;;;;6.47;3.63;;;;;;;30.84;30.33;99779.56;5024531;28;20048;-29
2022/08/11 15:55:18;;;;;;;5.78;3.55;;;;;;;30.77;30.51;99768.44;5009874;28;20034;-29
2022/08/11 16:06:02;;;;;;;5.03;2.10;;;;;;;30.56;30.56;99767.97;5009209;28;20048;-32
2022/08/11 16:08:29;;;;;;;5.63;2.05;;;;;;;30.58;30.42;99779.44;5009472;28;20033;-31
2022/08/11 16:10:56;;;;;;;3.97;1.90;;;;;;;30.41;30.27;99786.16;5009745;28;20034;-31
2022/08/11 16:18:50;;;;;;;3.72;1.90;;;;;;;30.38;30.59;99793.19;5009640;28;20060;-34
2022/08/11 16:21:18;;;;;;;6.03;1.95;;;;;;;30.50;30.00;99785.94;5024402;28;20041;-30
2022/08/11 16:23:47;;;;;;;7.55;2.20;;;;;;;30.04;31.06;99779.00;5007551;28;20022;-32
2022/08/11 16:26:19;;;;;;;5.43;2.10;;;;;;;30.08;30.63;99801.09;5024225;28;20790;-30
2022/08/11 16:28:46;;;;;;;5.95;2.20;;;;;;;30.09;31.16;99796.38;5024421;28;20026;-30
2022/08/11 16:31:14;;;;;;;2.85;1.90;;;;;;;29.92;30.75;99792.88;5009269;28;20045;-30
2022/08/11 16:33:40;;;;;;;;;;;;;;;29.97;31.29;99817.31;5024972;28;20088;-35